Time;durP1;ratioP1;P1;durP2;ratioP2;P2;SDS_P1;SDS_P2;PMS_P1;PMS_P2;Temp;Humidity;BMP_temperature;BMP_pressure;BME280_temperature;BME280_humidity;BME280_pressure;Samples;Min_cycle;Max_cycle;Signal;HPM_P1;HPM_P2
2022/08/01 00:01:53;;;;;;;7.57;3.28;;;;;;;19.43;57.31;99868.63;4907089;29;20040;-56
2022/08/01 00:04:19;;;;;;;4.32;2.30;;;;;;;19.36;57.38;99851.53;4906943;29;20036;-57
2022/08/01 00:06:45;;;;;;;3.20;2.40;;;;;;;19.41;58.24;99872.28;4907306;29;20029;-57
2022/08/01 00:09:10;;;;;;;5.75;2.67;;;;;;;19.38;57.66;99868.06;4905948;29;20236;-57
2022/08/01 00:11:36;;;;;;;4.05;2.50;;;;;;;19.37;57.98;99866.34;4906929;29;20065;-56
2022/08/01 00:14:02;;;;;;;5.75;2.72;;;;;;;19.32;57.84;99863.13;4902011;29;20321;-57
2022/08/01 00:16:27;;;;;;;6.80;2.38;;;;;;;19.32;57.83;99865.75;4906926;29;20072;-58
2022/08/01 00:18:53;;;;;;;3.03;2.60;;;;;;;19.26;58.10;99858.22;4906931;29;20087;-58
2022/08/01 00:21:19;;;;;;;4.18;2.83;;;;;;;19.24;57.69;99858.31;4907213;29;20028;-58
2022/08/01 00:23:45;;;;;;;5.88;3.20;;;;;;;19.25;57.48;99860.00;4906841;29;20051;-58
2022/08/01 00:26:12;;;;;;;4.93;2.85;;;;;;;19.29;57.76;99858.03;4906692;29;20040;-58
2022/08/01 00:28:38;;;;;;;4.47;2.92;;;;;;;19.29;58.46;99852.78;4906723;29;20024;-57
2022/08/01 00:31:04;;;;;;;6.47;3.30;;;;;;;19.26;58.57;99853.81;4906583;29;20296;-57
2022/08/01 00:33:29;;;;;;;4.18;2.75;;;;;;;19.21;57.87;99853.22;4906264;29;20036;-57
2022/08/01 00:35:55;;;;;;;5.53;3.17;;;;;;;19.15;57.44;99856.16;4906672;29;20040;-58
2022/08/01 00:38:21;;;;;;;6.70;3.55;;;;;;;19.04;57.55;99841.00;4906606;29;20032;-58
2022/08/01 00:40:47;;;;;;;4.05;3.58;;;;;;;19.15;58.11;99858.78;4906769;29;20081;-57
2022/08/01 00:43:12;;;;;;;6.63;2.83;;;;;;;19.11;58.08;99855.50;4905327;29;20063;-57
2022/08/01 00:45:38;;;;;;;4.32;2.72;;;;;;;19.05;58.14;99850.56;4907645;29;20047;-57
2022/08/01 00:48:04;;;;;;;4.70;3.10;;;;;;;19.09;58.15;99856.50;4906990;29;20147;-57
2022/08/01 00:50:30;;;;;;;5.22;3.35;;;;;;;19.05;58.31;99850.56;4906546;29;20056;-57
2022/08/01 00:52:57;;;;;;;4.82;3.00;;;;;;;19.01;58.93;99849.06;4906416;29;20043;-57
2022/08/01 00:55:23;;;;;;;3.53;2.85;;;;;;;19.01;59.75;99853.44;4909800;29;20052;-56
2022/08/01 00:57:49;;;;;;;3.45;3.08;;;;;;;18.88;59.94;99838.34;4905245;29;20269;-57
2022/08/01 01:00:15;;;;;;;5.78;3.20;;;;;;;18.93;60.62;99853.88;4906541;29;20028;-57
2022/08/01 01:02:41;;;;;;;5.82;3.38;;;;;;;18.86;59.38;99847.22;4906349;29;20198;-56
2022/08/01 01:05:07;;;;;;;5.68;2.70;;;;;;;18.83;59.50;99844.75;4906238;29;20547;-56
2022/08/01 01:08:13;;;;;;;5.25;3.42;;;;;;;18.77;59.26;99845.94;4906358;29;20032;-56
2022/08/01 01:10:48;;;;;;;4.43;3.22;;;;;;;18.48;59.69;99808.09;4906183;29;20033;-56
2022/08/01 01:13:23;;;;;;;4.88;3.58;;;;;;;18.50;59.35;99806.25;4899507;29;20033;-57
2022/08/01 01:15:59;;;;;;;5.70;3.45;;;;;;;18.64;59.30;99858.84;4892798;29;20031;-57
2022/08/01 01:18:32;;;;;;;4.63;3.22;;;;;;;18.51;60.30;99823.69;4906801;29;20112;-57
2022/08/01 01:21:13;;;;;;;4.68;3.40;;;;;;;18.59;60.40;99845.13;4907006;29;20048;-57
2022/08/01 01:24:17;;;;;;;5.35;2.95;;;;;;;18.62;60.72;99850.19;4906930;29;20033;-57
2022/08/01 01:26:57;;;;;;;4.53;2.92;;;;;;;18.25;60.77;99795.25;4906748;29;20028;-57
2022/08/01 01:29:30;;;;;;;5.60;3.42;;;;;;;18.25;60.24;99794.41;4906939;29;20338;-57
2022/08/01 01:31:56;;;;;;;4.65;3.20;;;;;;;18.46;60.83;99843.13;4906792;29;20056;-57
2022/08/01 01:34:23;;;;;;;4.50;3.20;;;;;;;18.49;60.81;99851.78;4906660;29;20028;-57
2022/08/01 01:36:54;;;;;;;4.53;3.40;;;;;;;18.42;61.56;99840.75;4906335;29;20029;-57
2022/08/01 01:39:21;;;;;;;4.88;3.20;;;;;;;18.15;60.75;99801.91;4906428;29;20036;-57
2022/08/01 01:41:49;;;;;;;6.43;3.70;;;;;;;18.32;61.71;99826.41;4902813;29;20076;-57
2022/08/01 01:44:17;;;;;;;6.43;3.30;;;;;;;18.36;61.72;99834.03;4906683;29;20060;-57
2022/08/01 01:46:43;;;;;;;4.63;3.65;;;;;;;18.25;60.54;99828.50;4911099;29;20040;-57
2022/08/01 01:49:10;;;;;;;7.97;3.80;;;;;;;18.24;60.62;99838.16;4910217;29;20037;-57
2022/08/01 01:51:38;;;;;;;4.68;3.55;;;;;;;18.25;60.88;99839.81;4908361;29;20186;-57
2022/08/01 01:54:05;;;;;;;5.80;4.03;;;;;;;18.24;61.76;99840.78;4910049;29;20028;-57
2022/08/01 01:56:31;;;;;;;5.00;3.50;;;;;;;18.22;61.80;99841.75;4910205;29;20295;-58
2022/08/01 01:59:00;;;;;;;7.63;3.88;;;;;;;17.91;60.87;99798.75;4909758;29;20024;-57
2022/08/01 02:01:29;;;;;;;6.20;3.90;;;;;;;17.90;61.30;99802.25;4899629;29;20051;-57
2022/08/01 02:03:56;;;;;;;5.13;3.70;;;;;;;18.14;62.20;99842.13;4909678;29;20048;-58
2022/08/01 02:06:23;;;;;;;6.22;3.72;;;;;;;17.89;62.21;99801.41;4908583;29;20213;-57
2022/08/01 02:08:51;;;;;;;7.55;3.92;;;;;;;18.10;61.64;99833.59;4889968;29;20035;-57
2022/08/01 02:11:19;;;;;;;6.90;4.10;;;;;;;18.18;61.70;99850.72;4904853;29;20551;-57
2022/08/01 02:14:08;;;;;;;7.45;3.95;;;;;;;17.89;62.77;99800.56;4909699;29;20033;-57
2022/08/01 02:16:37;;;;;;;5.80;4.05;;;;;;;17.83;62.37;99795.63;4909510;29;20032;-57
2022/08/01 02:19:03;;;;;;;5.25;3.80;;;;;;;18.13;62.47;99845.69;4909380;29;20266;-57
2022/08/01 02:21:41;;;;;;;5.82;3.60;;;;;;;18.14;63.43;99857.03;4923933;29;20028;-57
2022/08/01 02:24:25;;;;;;;9.18;5.35;;;;;;;18.10;63.04;99843.25;4909587;29;20043;-57
2022/08/01 02:26:54;;;;;;;7.25;4.60;;;;;;;18.01;63.37;99835.81;4889705;29;20033;-58
2022/08/01 02:29:28;;;;;;;5.45;3.65;;;;;;;17.93;63.38;99813.47;4905776;29;20025;-57
2022/08/01 02:31:54;;;;;;;4.88;3.72;;;;;;;18.06;63.97;99839.06;4909492;29;20044;-57
2022/08/01 02:34:22;;;;;;;5.15;4.03;;;;;;;17.99;63.62;99838.53;4909405;29;20043;-57
2022/08/01 02:36:49;;;;;;;6.70;3.95;;;;;;;18.05;63.65;99840.81;4909344;29;20032;-57
2022/08/01 02:39:18;;;;;;;5.88;3.58;;;;;;;17.71;64.00;99792.69;4923804;29;20347;-57
2022/08/01 02:41:49;;;;;;;5.68;3.28;;;;;;;17.73;62.43;99798.72;4909563;29;20036;-57
2022/08/01 02:44:24;;;;;;;5.80;3.58;;;;;;;17.64;62.20;99795.69;4907963;29;20288;-57
2022/08/01 02:46:55;;;;;;;6.07;4.45;;;;;;;17.83;64.25;99817.44;4911506;29;20040;-58
2022/08/01 02:49:23;;;;;;;4.78;3.00;;;;;;;18.13;62.04;99853.56;4908839;29;20042;-57
2022/08/01 02:51:51;;;;;;;5.70;3.70;;;;;;;18.20;63.80;99840.97;4893243;29;20495;-57
2022/08/01 02:54:21;;;;;;;7.50;3.40;;;;;;;18.17;60.95;99860.34;4908866;29;20052;-57
2022/08/01 02:56:48;;;;;;;8.43;3.15;;;;;;;18.05;59.95;99837.38;4908702;29;20032;-57
2022/08/01 02:59:17;;;;;;;6.85;3.38;;;;;;;18.09;61.24;99842.38;4907695;29;20216;-57
2022/08/01 03:01:45;;;;;;;9.25;3.38;;;;;;;18.11;60.52;99851.03;4908768;29;20223;-57
2022/08/01 03:04:12;;;;;;;5.50;3.15;;;;;;;18.22;60.54;99849.63;4908540;29;20080;-57
2022/08/01 03:06:38;;;;;;;5.18;3.20;;;;;;;18.27;60.16;99855.47;4908849;29;20325;-57
2022/08/01 03:09:07;;;;;;;4.93;3.03;;;;;;;18.37;60.83;99851.47;4908836;29;20048;-57
2022/08/01 03:11:36;;;;;;;6.32;3.30;;;;;;;18.11;60.83;99801.22;4923519;29;20036;-57
2022/08/01 03:14:07;;;;;;;7.25;3.60;;;;;;;18.48;60.48;99850.91;4896395;29;20379;-57
2022/08/01 03:16:35;;;;;;;5.90;3.03;;;;;;;18.49;61.47;99851.78;4898423;29;20385;-57
2022/08/01 03:19:02;;;;;;;6.10;2.90;;;;;;;18.49;61.48;99855.22;4908662;29;20039;-56
2022/08/01 03:21:29;;;;;;;6.50;3.25;;;;;;;18.56;61.05;99856.63;4907930;29;20062;-57
2022/08/01 03:23:58;;;;;;;5.72;3.22;;;;;;;18.23;59.54;99820.72;4908663;29;20033;-56
2022/08/01 03:26:29;;;;;;;6.25;3.28;;;;;;;18.42;59.51;99820.59;4908395;29;20347;-56
2022/08/01 03:29:06;;;;;;;8.52;2.90;;;;;;;18.49;59.56;99823.75;4923085;29;20123;-57
2022/08/01 03:31:38;;;;;;;5.97;3.13;;;;;;;18.55;59.38;99825.22;4907138;29;20032;-57
2022/08/01 03:34:04;;;;;;;;;;;;;;;18.88;60.20;99851.47;4908400;29;20040;-57
2022/08/01 03:36:33;;;;;;;6.88;3.00;;;;;;;18.53;60.43;99800.84;4907585;29;19990;-57
2022/08/01 03:39:02;;;;;;;4.78;2.97;;;;;;;18.74;59.72;99804.09;4908155;29;20028;-57
2022/08/01 03:41:37;;;;;;;4.22;2.92;;;;;;;19.07;59.30;99853.09;4908157;29;20121;-57
2022/08/01 03:44:15;;;;;;;8.25;3.47;;;;;;;19.12;61.09;99859.81;4907936;29;20102;-57
2022/08/01 03:46:48;;;;;;;5.47;3.30;;;;;;;19.17;59.10;99856.09;4907117;29;20031;-57
2022/08/01 03:49:25;;;;;;;5.35;3.25;;;;;;;19.01;60.23;99814.94;4906959;29;20076;-57
2022/08/01 03:51:52;;;;;;;6.60;3.58;;;;;;;19.11;60.33;99839.75;4907107;29;20052;-57
2022/08/01 03:54:24;;;;;;;9.02;4.15;;;;;;;18.99;58.42;99800.19;4907063;29;20037;-57
2022/08/01 03:56:51;;;;;;;11.80;3.75;;;;;;;19.10;58.10;99806.53;4907404;29;20108;-57
2022/08/01 03:59:18;;;;;;;7.45;3.30;;;;;;;19.22;58.72;99801.53;4906209;29;20110;-58
2022/08/01 04:01:46;;;;;;;6.88;3.15;;;;;;;19.54;57.99;99847.03;4907509;29;20083;-57
2022/08/01 04:04:12;;;;;;;8.10;3.42;;;;;;;19.63;57.49;99836.00;4906643;29;20230;-57
2022/08/01 04:06:39;;;;;;;7.47;3.50;;;;;;;19.75;58.28;99839.72;4907592;29;20177;-57
2022/08/01 04:09:04;;;;;;;8.05;3.38;;;;;;;19.85;58.37;99837.41;4907006;29;20028;-57
2022/08/01 04:11:30;;;;;;;5.13;3.40;;;;;;;19.86;57.64;99835.66;4907623;29;20036;-57
2022/08/01 04:13:57;;;;;;;8.15;3.28;;;;;;;19.93;58.00;99835.19;4907501;29;20091;-57
2022/08/01 04:16:22;;;;;;;8.88;3.30;;;;;;;19.92;57.90;99837.91;4907602;29;20103;-58
2022/08/01 04:18:48;;;;;;;5.90;3.38;;;;;;;19.94;57.30;99838.69;4907569;29;20084;-58
2022/08/01 04:21:17;;;;;;;9.85;3.10;;;;;;;19.99;57.79;99841.88;4905891;29;20038;-58
2022/08/01 04:23:45;;;;;;;7.25;3.83;;;;;;;20.06;58.31;99840.59;4907018;29;20024;-58
2022/08/01 04:26:14;;;;;;;9.48;3.90;;;;;;;19.79;58.36;99793.94;4907216;29;20055;-57
2022/08/01 04:28:41;;;;;;;6.47;3.15;;;;;;;20.13;57.01;99836.66;4907677;29;20032;-57
2022/08/01 04:31:11;;;;;;;8.68;3.38;;;;;;;20.12;56.72;99849.91;4906083;29;20258;-57
2022/08/01 04:33:45;;;;;;;7.90;3.92;;;;;;;20.22;57.71;99851.03;4906190;29;20059;-57
2022/08/01 04:36:14;;;;;;;9.55;3.85;;;;;;;20.00;56.89;99793.63;4912040;29;20029;-57
2022/08/01 04:38:45;;;;;;;7.45;4.13;;;;;;;20.30;56.27;99848.81;4914065;29;20048;-58
2022/08/01 04:41:12;;;;;;;8.33;4.17;;;;;;;20.17;56.56;99805.78;4914680;29;20340;-57
2022/08/01 04:43:39;;;;;;;9.88;3.55;;;;;;;20.39;56.69;99844.78;4915374;29;20216;-57
2022/08/01 04:46:08;;;;;;;10.57;3.67;;;;;;;20.38;55.10;99845.75;4914559;29;20044;-57
2022/08/01 04:48:38;;;;;;;7.85;3.38;;;;;;;20.21;54.56;99801.16;4914866;29;20068;-57
2022/08/01 04:51:11;;;;;;;9.90;3.85;;;;;;;20.59;55.10;99842.75;4909305;29;20060;-57
2022/08/01 04:53:36;;;;;;;9.75;3.72;;;;;;;20.65;54.56;99842.38;4908017;29;20041;-59
2022/08/01 04:56:02;;;;;;;13.20;7.20;;;;;;;20.76;54.73;99844.38;4911259;29;20253;-57
2022/08/01 04:58:28;;;;;;;11.52;4.07;;;;;;;20.78;53.63;99843.34;4920030;29;20028;-57
2022/08/01 05:00:53;;;;;;;7.13;3.78;;;;;;;20.86;53.59;99838.47;4915198;29;20036;-57
2022/08/01 05:03:19;;;;;;;12.57;5.05;;;;;;;20.85;53.40;99849.09;4911037;29;20325;-57
2022/08/01 05:05:45;;;;;;;9.73;4.13;;;;;;;20.99;53.60;99848.22;4905662;29;20097;-56
2022/08/01 05:08:10;;;;;;;7.88;4.45;;;;;;;21.06;53.36;99849.53;4906920;29;20047;-57
2022/08/01 05:10:36;;;;;;;8.50;4.20;;;;;;;21.19;52.91;99845.19;4905810;29;20029;-60
2022/08/01 05:13:02;;;;;;;6.97;4.97;;;;;;;21.41;52.20;99845.63;4918047;29;20345;-59
2022/08/01 05:15:27;;;;;;;9.23;4.57;;;;;;;21.75;52.12;99852.22;4897614;29;20055;-59
2022/08/01 05:17:53;;;;;;;10.90;4.80;;;;;;;21.84;51.77;99850.78;4904932;29;20032;-59
2022/08/01 05:20:19;;;;;;;8.35;4.97;;;;;;;21.91;52.29;99854.69;4907176;29;20028;-59
2022/08/01 05:22:44;;;;;;;7.55;4.47;;;;;;;22.30;51.82;99849.50;4909027;29;20025;-60
2022/08/01 05:25:10;;;;;;;10.70;4.45;;;;;;;22.54;49.89;99845.19;4910396;29;20206;-59
2022/08/01 05:27:39;;;;;;;9.65;3.95;;;;;;;22.97;50.11;99848.44;4909520;29;20084;-60
2022/08/01 05:30:08;;;;;;;7.68;3.72;;;;;;;23.04;48.96;99849.69;4909471;29;20088;-60
2022/08/01 05:32:34;;;;;;;12.52;4.35;;;;;;;22.91;49.21;99850.56;4910018;29;20028;-60
2022/08/01 05:35:00;;;;;;;11.73;4.75;;;;;;;22.96;50.67;99852.03;4908935;29;20273;-60
2022/08/01 05:37:25;;;;;;;11.48;4.28;;;;;;;;;;4910472;29;20020;-60
2022/08/01 05:39:51;;;;;;;4.90;3.90;;;;;;;22.82;50.54;99853.84;4910299;29;20325;-59
2022/08/01 05:42:16;;;;;;;7.40;2.80;;;;;;;22.83;49.46;99836.19;4910659;29;20132;-59
2022/08/01 05:44:42;;;;;;;6.32;2.70;;;;;;;22.72;48.40;99845.72;4910282;29;20036;-59
2022/08/01 05:47:08;;;;;;;4.68;2.90;;;;;;;22.73;48.00;99838.63;4914304;29;20104;-59
2022/08/01 05:49:33;;;;;;;7.00;2.80;;;;;;;22.80;47.13;99842.53;4893534;29;20024;-59
2022/08/01 05:52:01;;;;;;;6.38;2.38;;;;;;;22.79;46.77;99845.28;4910026;29;20068;-59
2022/08/01 05:54:27;;;;;;;5.38;2.45;;;;;;;22.88;47.52;99845.50;4914789;29;20035;-59
2022/08/01 05:56:54;;;;;;;4.82;2.38;;;;;;;22.90;46.35;99838.31;4911385;29;20032;-59
2022/08/01 05:59:20;;;;;;;6.72;2.30;;;;;;;22.91;46.44;99841.78;4910030;29;20046;-59
2022/08/01 06:01:46;;;;;;;4.72;2.60;;;;;;;22.64;46.15;99836.66;4910063;29;20024;-60
2022/08/01 06:04:11;;;;;;;5.47;2.35;;;;;;;22.80;46.71;99845.19;4909860;29;20024;-59
2022/08/01 06:06:37;;;;;;;7.63;3.30;;;;;;;22.97;47.05;99829.94;4909969;29;20100;-59
2022/08/01 06:09:03;;;;;;;4.75;2.38;;;;;;;23.03;47.53;99837.44;4910278;29;20033;-60
2022/08/01 06:11:28;;;;;;;3.17;1.90;;;;;;;23.11;47.96;99840.41;4909660;29;20233;-60
2022/08/01 06:13:54;;;;;;;3.10;2.42;;;;;;;23.06;46.60;99829.31;4909640;29;20032;-60
2022/08/01 06:16:20;;;;;;;7.40;2.50;;;;;;;23.15;46.62;99843.69;4909499;29;20032;-59
2022/08/01 06:18:46;;;;;;;4.72;2.00;;;;;;;23.02;46.10;99838.41;4909861;29;20041;-59
2022/08/01 06:21:11;;;;;;;4.63;2.00;;;;;;;23.20;46.84;99837.13;4909692;29;20041;-59
2022/08/01 06:23:37;;;;;;;6.25;2.10;;;;;;;23.23;44.61;99847.47;4908424;29;20028;-59
2022/08/01 06:26:03;;;;;;;4.45;1.80;;;;;;;23.30;45.53;99847.00;4909660;29;20035;-59
2022/08/01 06:28:29;;;;;;;4.70;2.22;;;;;;;23.21;44.76;99849.34;4909596;29;20029;-60
2022/08/01 06:30:55;;;;;;;5.00;1.88;;;;;;;23.33;44.73;99852.06;4909910;29;20312;-59
2022/08/01 06:33:20;;;;;;;4.82;2.00;;;;;;;23.36;45.00;99851.84;4907900;29;20036;-59
2022/08/01 06:35:46;;;;;;;3.70;1.80;;;;;;;23.16;43.79;99848.00;4909239;29;20096;-59
2022/08/01 06:38:12;;;;;;;4.03;1.95;;;;;;;23.19;44.06;99855.72;4924174;29;20025;-60
2022/08/01 06:40:38;;;;;;;3.45;1.95;;;;;;;23.34;45.03;99853.78;4909296;29;20032;-59
2022/08/01 06:43:04;;;;;;;3.67;1.95;;;;;;;23.29;43.63;99853.25;4909419;29;20229;-59
2022/08/01 06:45:29;;;;;;;3.55;2.03;;;;;;;23.37;44.37;99857.06;4911768;29;20020;-59
2022/08/01 06:47:55;;;;;;;3.28;2.03;;;;;;;23.37;44.15;99849.13;4909979;29;20085;-59
2022/08/01 06:50:20;;;;;;;2.92;1.83;;;;;;;23.41;43.83;99847.09;4909209;29;20033;-61
2022/08/01 06:52:46;;;;;;;4.85;2.13;;;;;;;23.39;44.87;99836.63;4909179;29;20254;-59
2022/08/01 06:55:12;;;;;;;8.80;2.35;;;;;;;23.52;45.98;99847.16;4908895;29;20024;-59
2022/08/01 06:57:52;;;;;;;3.17;2.20;;;;;;;23.45;46.56;99837.97;4909160;29;20032;-60
2022/08/01 07:00:22;;;;;;;5.25;1.80;;;;;;;23.48;45.52;99850.97;4907848;29;20077;-60
2022/08/01 07:02:53;;;;;;;4.10;1.90;;;;;;;23.60;44.61;99865.94;4908965;29;20136;-59
2022/08/01 07:05:19;;;;;;;3.72;1.90;;;;;;;23.70;45.28;99855.53;4908856;29;20064;-59
2022/08/01 07:07:45;;;;;;;2.88;1.58;;;;;;;23.84;44.46;99861.59;4908969;29;20043;-59
2022/08/01 07:10:11;;;;;;;4.68;1.80;;;;;;;23.90;45.14;99858.53;4907601;29;20079;-59
2022/08/01 07:12:37;;;;;;;5.65;2.05;;;;;;;23.95;45.16;99840.50;4909034;29;20056;-59
2022/08/01 07:15:10;;;;;;;5.80;2.25;;;;;;;24.09;46.84;99855.34;4904715;29;20541;-60
2022/08/01 07:17:40;;;;;;;2.17;1.77;;;;;;;24.13;44.94;99862.13;4904791;29;20032;-59
2022/08/01 07:20:12;;;;;;;3.40;1.90;;;;;;;24.11;43.10;99856.06;4908817;29;20056;-59
2022/08/01 07:22:38;;;;;;;5.28;1.95;;;;;;;24.00;42.50;99862.19;4908648;29;20099;-59
2022/08/01 07:25:05;;;;;;;2.47;2.28;;;;;;;23.91;42.27;99853.16;4908488;29;20408;-59
2022/08/01 07:27:31;;;;;;;4.53;2.67;;;;;;;23.86;43.36;99865.00;4908691;29;20037;-59
2022/08/01 07:29:56;;;;;;;2.58;2.10;;;;;;;23.80;42.67;99850.41;4908300;29;20068;-59
2022/08/01 07:32:22;;;;;;;5.05;2.00;;;;;;;23.97;43.85;99853.63;4908469;29;20028;-59
2022/08/01 07:34:48;;;;;;;6.32;2.03;;;;;;;24.04;42.77;99850.41;4908088;29;20232;-59
2022/08/01 07:37:13;;;;;;;6.82;2.45;;;;;;;24.01;43.01;99855.09;4908307;29;20025;-59
2022/08/01 07:39:39;;;;;;;3.38;2.20;;;;;;;24.21;42.84;99845.63;4907112;29;20025;-59
2022/08/01 07:42:05;;;;;;;5.40;2.30;;;;;;;24.21;41.57;99846.47;4908154;29;20075;-59
2022/08/01 07:44:30;;;;;;;5.28;2.00;;;;;;;24.38;43.35;99841.69;4907301;29;20316;-59
2022/08/01 07:46:56;;;;;;;2.78;1.95;;;;;;;24.29;43.24;99840.59;4912730;29;20191;-58
2022/08/01 07:49:21;;;;;;;8.07;2.80;;;;;;;24.27;42.84;99840.72;4922797;29;20051;-59
2022/08/01 07:51:47;;;;;;;4.80;2.08;;;;;;;24.22;41.81;99840.22;4907940;29;20024;-59
2022/08/01 07:54:13;;;;;;;4.25;2.58;;;;;;;24.39;42.37;99841.59;4907918;29;20036;-59
2022/08/01 07:56:38;;;;;;;4.43;2.17;;;;;;;24.08;42.53;99808.69;4908248;29;20095;-61
2022/08/01 07:59:04;;;;;;;7.78;2.40;;;;;;;24.28;42.18;99839.78;4907905;29;20277;-59
2022/08/01 08:01:30;;;;;;;6.45;2.38;;;;;;;24.37;42.62;99847.94;4906682;29;20028;-59
2022/08/01 08:03:55;;;;;;;4.32;2.55;;;;;;;24.42;41.30;99843.16;4907788;29;20360;-59
2022/08/01 08:06:21;;;;;;;7.20;2.67;;;;;;;24.61;41.85;99846.09;4907790;29;20040;-59
2022/08/01 08:08:47;;;;;;;4.13;2.10;;;;;;;24.37;41.55;99838.22;4907697;29;20081;-59
2022/08/01 08:11:12;;;;;;;3.70;2.10;;;;;;;24.55;41.61;99832.47;4907688;29;20301;-59
2022/08/01 08:13:38;;;;;;;4.22;2.13;;;;;;;24.52;41.52;99838.81;4900638;29;20136;-60
2022/08/01 08:16:04;;;;;;;5.32;1.90;;;;;;;24.49;40.64;99830.31;4890428;29;20104;-59
2022/08/01 08:18:30;;;;;;;4.20;2.08;;;;;;;24.74;43.08;99837.19;4907808;29;20035;-59
2022/08/01 08:20:55;;;;;;;3.65;1.90;;;;;;;24.77;41.62;99839.59;4907652;29;20032;-59
2022/08/01 08:26:05;;;;;;;6.13;1.90;;;;;;;24.85;42.19;99834.53;4905367;29;20032;-58
2022/08/01 08:28:31;;;;;;;3.38;2.35;;;;;;;24.68;40.47;99833.22;4907441;29;20036;-59
2022/08/01 08:30:57;;;;;;;2.30;1.83;;;;;;;24.81;41.74;99835.75;4907473;29;20036;-60
2022/08/01 08:33:22;;;;;;;3.63;2.03;;;;;;;24.94;41.73;99830.31;4907657;29;20254;-60
2022/08/01 08:35:48;;;;;;;3.00;1.90;;;;;;;24.84;41.21;99826.72;4907248;29;20039;-60
2022/08/01 08:38:14;;;;;;;5.65;2.10;;;;;;;24.90;40.32;99835.03;4907200;29;20036;-60
2022/08/01 08:40:39;;;;;;;3.83;1.95;;;;;;;25.11;40.31;99837.78;4890788;29;20115;-59
2022/08/01 08:43:05;;;;;;;3.92;1.90;;;;;;;25.25;40.78;99838.47;4907363;29;20067;-61
2022/08/01 08:45:31;;;;;;;4.53;2.17;;;;;;;25.37;39.86;99834.00;4911196;29;20024;-60
2022/08/01 08:47:58;;;;;;;3.63;2.00;;;;;;;25.39;40.22;99824.13;4907435;29;20052;-60
2022/08/01 08:50:25;;;;;;;2.00;1.73;;;;;;;25.16;39.03;99781.75;4907468;29;20277;-60
2022/08/01 08:52:54;;;;;;;2.40;2.10;;;;;;;25.02;38.81;99827.91;4907511;29;20107;-60
2022/08/01 08:55:20;;;;;;;6.97;2.33;;;;;;;25.30;39.35;99818.56;4908789;29;20076;-60
2022/08/01 08:57:47;;;;;;;2.45;1.83;;;;;;;25.53;39.32;99826.50;4911098;29;20039;-60
2022/08/01 09:00:14;;;;;;;2.78;1.70;;;;;;;25.56;38.73;99826.25;4911270;29;20104;-60
2022/08/01 09:02:44;;;;;;;2.40;1.70;;;;;;;25.83;38.96;99819.63;4911151;29;20040;-60
2022/08/01 09:05:11;;;;;;;3.15;2.17;;;;;;;25.86;37.94;99819.38;4911196;29;20335;-61
2022/08/01 09:07:37;;;;;;;3.60;2.00;;;;;;;25.68;36.06;99816.41;4910807;29;20028;-60
2022/08/01 09:10:03;;;;;;;3.90;2.22;;;;;;;25.58;37.94;99812.84;4911347;29;20061;-60
2022/08/01 09:12:29;;;;;;;3.65;2.00;;;;;;;25.60;37.58;99816.22;4911014;29;20032;-60
2022/08/01 09:14:54;;;;;;;3.35;2.22;;;;;;;25.54;37.46;99816.72;4894135;29;20124;-60
2022/08/01 09:17:21;;;;;;;3.15;1.83;;;;;;;25.54;38.08;99822.88;4904290;29;20253;-60
2022/08/01 09:19:51;;;;;;;2.13;1.80;;;;;;;25.33;38.06;99818.34;4910786;29;20096;-60
2022/08/01 09:22:22;;;;;;;3.17;1.73;;;;;;;25.19;38.11;99768.22;4910596;29;20365;-59
2022/08/01 09:25:05;;;;;;;3.67;2.13;;;;;;;25.36;37.84;99813.78;4910660;29;20092;-60
2022/08/01 09:27:32;;;;;;;3.83;2.22;;;;;;;25.39;38.14;99810.88;4910834;29;20408;-61
2022/08/01 09:30:10;;;;;;;3.00;2.10;;;;;;;25.41;38.57;99770.00;4910557;29;20032;-60
2022/08/01 09:32:36;;;;;;;5.32;2.15;;;;;;;25.26;38.04;99809.19;4910710;29;20329;-60
2022/08/01 09:35:24;;;;;;;2.75;2.00;;;;;;;25.47;38.07;99806.63;4910230;29;20032;-60
2022/08/01 09:37:50;;;;;;;2.75;1.95;;;;;;;25.35;36.33;99814.75;4909366;29;20032;-60
2022/08/01 09:40:15;;;;;;;3.05;1.83;;;;;;;25.24;36.66;99811.13;4909288;29;20105;-60
2022/08/01 09:42:41;;;;;;;2.45;1.73;;;;;;;25.27;36.95;99810.88;4910479;29;20313;-60
2022/08/01 09:45:07;;;;;;;2.00;1.77;;;;;;;25.20;37.62;99808.81;4909815;29;20104;-60
2022/08/01 09:47:39;;;;;;;2.40;1.63;;;;;;;25.19;37.02;99808.00;4915611;29;20048;-60
2022/08/01 09:50:05;;;;;;;2.30;2.10;;;;;;;25.42;38.01;99807.97;4910569;29;20028;-60
2022/08/01 09:52:32;;;;;;;2.13;1.85;;;;;;;25.39;35.61;99792.31;4910130;29;20077;-60
2022/08/01 09:55:05;;;;;;;3.10;1.70;;;;;;;25.52;36.54;99797.44;4917409;29;20028;-60
2022/08/01 09:57:30;;;;;;;4.80;1.80;;;;;;;25.52;35.99;99790.31;4910250;29;20032;-60
2022/08/01 09:59:59;;;;;;;2.80;1.75;;;;;;;25.48;35.83;99749.09;4909984;29;20198;-63
2022/08/01 10:02:30;;;;;;;3.20;1.80;;;;;;;25.76;37.95;99794.56;4924884;29;20103;-61
2022/08/01 10:04:56;;;;;;;1.77;1.55;;;;;;;25.71;35.84;99780.84;4909848;29;20045;-60
2022/08/01 10:07:22;;;;;;;3.88;1.80;;;;;;;25.80;37.07;99785.38;4908857;29;20032;-60
2022/08/01 10:09:48;;;;;;;2.85;1.83;;;;;;;25.93;36.84;99786.03;4908875;29;20025;-60
2022/08/01 10:12:18;;;;;;;2.03;1.83;;;;;;;25.93;37.89;99763.97;4909871;29;20040;-60
2022/08/01 10:14:45;;;;;;;5.28;2.00;;;;;;;26.06;36.75;99790.34;4893684;29;20047;-60
2022/08/01 10:17:13;;;;;;;2.50;2.30;;;;;;;25.87;36.34;99773.28;4900472;29;20046;-60
2022/08/01 10:19:41;;;;;;;3.03;1.90;;;;;;;26.13;36.96;99783.53;4909699;29;20035;-60
2022/08/01 10:22:16;;;;;;;6.80;2.30;;;;;;;26.14;37.08;99795.84;4909729;29;20032;-60
2022/08/01 10:24:47;;;;;;;5.68;2.10;;;;;;;25.97;36.88;99729.06;4909645;29;20056;-60
2022/08/01 10:27:16;;;;;;;5.90;2.35;;;;;;;26.07;37.22;99745.09;4909736;29;20043;-60
2022/08/01 10:29:47;;;;;;;2.67;2.00;;;;;;;26.12;36.63;99757.94;4908022;29;20049;-60
2022/08/01 10:32:12;;;;;;;3.88;2.10;;;;;;;26.27;36.51;99783.19;4909476;29;20040;-60
2022/08/01 10:34:39;;;;;;;4.18;2.00;;;;;;;26.00;35.77;99776.59;4908268;29;20108;-60
2022/08/01 10:37:06;;;;;;;3.05;2.10;;;;;;;25.72;35.88;99771.91;4908126;29;20306;-60
2022/08/01 10:39:33;;;;;;;3.80;1.88;;;;;;;26.00;36.84;99781.91;4924098;29;20024;-60
2022/08/01 10:42:00;;;;;;;3.78;2.20;;;;;;;26.15;36.78;99777.13;4907523;29;20040;-59
2022/08/01 10:44:28;;;;;;;4.07;3.35;;;;;;;25.93;37.02;99743.56;4907758;29;20024;-59
2022/08/01 10:47:09;;;;;;;4.85;2.13;;;;;;;25.76;35.92;99744.16;4915687;29;20067;-60
2022/08/01 10:49:58;;;;;;;2.00;1.80;;;;;;;26.06;37.38;99774.41;4908998;29;20037;-60
2022/08/01 10:52:23;;;;;;;3.38;2.10;;;;;;;26.06;37.96;99777.91;4909160;29;20499;-59
2022/08/01 10:55:02;;;;;;;5.18;2.30;;;;;;;25.87;37.38;99735.28;4908857;29;20033;-59
2022/08/01 10:57:46;;;;;;;4.32;2.35;;;;;;;26.06;38.31;99769.09;4890498;29;20073;-59
2022/08/01 11:00:19;;;;;;;3.83;2.40;;;;;;;26.09;38.09;99766.19;4908360;29;20039;-59
2022/08/01 11:03:00;;;;;;;3.53;1.80;;;;;;;26.16;37.47;99773.47;4908843;29;20029;-59
2022/08/01 11:05:27;;;;;;;3.08;2.08;;;;;;;25.79;36.32;99767.78;4908601;29;20096;-60
2022/08/01 11:07:54;;;;;;;6.70;2.30;;;;;;;25.98;38.00;99769.72;4908803;29;20067;-61
2022/08/01 11:10:40;;;;;;;3.00;2.20;;;;;;;25.98;36.57;99767.06;4908843;29;20033;-60
2022/08/01 11:13:11;;;;;;;4.15;2.00;;;;;;;26.09;36.63;99766.19;4907105;29;20033;-60
2022/08/01 11:15:40;;;;;;;3.23;2.10;;;;;;;26.09;36.91;99760.88;4907085;29;20051;-59
2022/08/01 11:18:28;;;;;;;3.30;2.10;;;;;;;26.22;36.09;99758.00;4908132;29;20135;-59
2022/08/01 11:20:59;;;;;;;3.08;1.92;;;;;;;26.01;36.65;99746.44;4908542;29;20031;-59
2022/08/01 11:23:27;;;;;;;7.18;2.47;;;;;;;25.91;36.23;99718.97;4908593;29;20332;-59
2022/08/01 11:25:53;;;;;;;3.10;2.15;;;;;;;25.91;37.63;99755.28;4908255;29;20040;-60
2022/08/01 11:28:23;;;;;;;6.13;2.60;;;;;;;25.83;36.72;99750.63;4908440;29;20025;-60
2022/08/01 11:30:51;;;;;;;5.03;2.00;;;;;;;25.79;36.79;99717.38;4908360;29;20352;-59
2022/08/01 11:33:19;;;;;;;2.90;1.98;;;;;;;25.57;36.10;99705.06;4907080;29;20038;-61
2022/08/01 11:36:09;;;;;;;2.90;2.13;;;;;;;25.61;36.39;99743.63;4907782;29;20031;-61
2022/08/01 11:38:36;;;;;;;6.45;2.28;;;;;;;25.65;37.04;99742.41;4908099;29;20371;-60
2022/08/01 11:41:16;;;;;;;6.68;2.30;;;;;;;25.53;36.30;99749.56;4908001;29;20392;-61
2022/08/01 11:44:04;;;;;;;2.67;2.28;;;;;;;25.45;36.33;99741.41;4908128;29;20210;-61